Motte Rimrock Reserve, California Weather observations

Data are for 10 minute period ending at time listed.
 Day   Time   Solar   Ave.   Ave.  Ave.  Vector  Max.   Baro.   Total    
  of    of     Rad.   Air    Rel.  Wind   Wind   Wind  Press.  Precip.   
Year   Day            Temp.  Hum.  Speed  Dir.   Gust                    
2020   (PST)  Kw/m2    F      %     mph   deg.    mph    mb.     in.     
-------------------------------------------------------------------------
  21   23:10   0.00   47.1    91    5.9   298     8.2   954.2    0.00 
  21   23:20   0.00   47.2    92    6.5   303     8.5   954.5    0.00 
  21   23:30   0.00   47.2    92    7.3   307     9.3   954.6    0.00 
  21   23:40   0.00   47.0    92    7.7   314     9.6   954.7    0.00 
  21   23:50   0.00   46.7    93    8.7   309    10.7   954.8    0.00 
  22    0:00   0.00   46.6    93    7.1   303     9.4   954.7    0.00 
  22    0:10   0.00   46.5    94    6.0   299     7.3   954.5    0.00 
  22    0:20   0.00   46.7    94    6.4   304     8.2   954.6    0.00 
  22    0:30   0.00   46.9    94    6.0   319     7.5   954.6    0.00 
  22    0:40   0.00   46.7    94    5.5   335     7.2   954.5    0.00 
  22    0:50   0.00   46.2    94    6.4   335     8.0   954.5    0.00 
  22    1:00   0.00   46.0    94    6.2   328     7.3   954.6    0.00 
  22    1:10   0.00   46.0    94    5.9   310     7.0   954.4    0.00 
  22    1:20   0.00   45.8    95    5.9   303     7.4   954.4    0.00 
  22    1:30   0.00   45.6    95    4.9   313     6.3   954.4    0.00 
  22    1:40   0.00   45.4    95    5.2   297     6.4   954.3    0.00 
  22    1:50   0.00   45.3    96    4.7   295     5.8   954.3    0.00 
  22    2:00   0.00   45.4    96    4.9   297     6.1   954.4    0.00 
  22    2:10   0.00   45.6    97    4.6   290     6.0   954.4    0.00 
  22    2:20   0.00   45.9    98    3.8   290     5.3   954.4    0.00 
  22    2:30   0.00   46.0    98    1.8   297     2.6   954.3    0.00 
  22    2:40   0.00   46.1    98    0.3   307     1.9   954.1    0.00 
  22    2:50   0.00   46.3    99    1.0   135     3.0   954.0    0.00 
  22    3:00   0.00   46.4    98    1.5   190     3.7   954.0    0.00 
  22    3:10   0.00   46.5    97    3.4   253     5.1   954.0    0.00 
  22    3:20   0.00   46.5    97    1.9   275     3.1   954.0    0.00 
  22    3:30   0.00   46.6    96    0.9   256     2.7   954.0    0.00 
  22    3:40   0.00   46.7    96    0.5   220     1.7   954.0    0.00 
  22    3:50   0.00   46.7    96    1.5   203     2.2   954.0    0.00 
  22    4:00   0.00   46.7    96    0.9   205     2.0   954.0    0.00 
  22    4:10   0.00   46.8    95    0.0     0     0.0   954.0    0.00 
  22    4:20   0.00   46.6    95    1.6   164     2.7   954.0    0.00 
  22    4:30   0.00   46.3    95    2.8   177     3.7   953.9    0.00 
  22    4:40   0.00   46.2    95    2.7   170     3.4   953.9    0.00 
  22    4:50   0.00   45.9    95    3.1   133     4.2   953.8    0.00 
  22    5:00   0.00   45.7    96    3.3   127     4.1   953.8    0.00 
  22    5:10   0.00   45.8    96    3.5   121     4.3   953.9    0.00 
  22    5:20   0.00   45.8    96    3.0   135     3.6   953.9    0.00 
  22    5:30   0.00   45.8    96    2.1   150     2.8   954.0    0.00 
  22    5:40   0.00   45.9    97    1.8   153     2.3   954.0    0.00 
  22    5:50   0.00   45.9    96    1.6   130     2.5   954.0    0.00 
  22    6:00   0.00   45.9    96    2.3    99     2.9   954.0    0.00 
  22    6:10   0.00   45.7    96    4.5    97     5.3   953.9    0.00 
  22    6:20   0.00   45.6    96    4.2   107     5.0   953.8    0.00 
  22    6:30   0.00   45.6    96    3.3   110     5.0   954.0    0.00 
  22    6:40   0.00   45.6    96    3.1   108     3.6   954.1    0.00 
  22    6:50   0.00   45.6    96    1.9    90     2.9   954.1    0.00 
  22    7:00   0.00   45.5    96    0.7    75     2.0   954.2    0.00 
  22    7:10   0.01   45.2    96    0.7   268     1.6   954.3    0.00 
  22    7:20   0.02   45.2    96    1.5   242     2.4   954.3    0.00 
  22    7:30   0.03   45.3    96    0.5   269     1.4   954.3    0.00 
  22    7:40   0.08   46.1    96    0.0     0     0.0   954.2    0.00 
  22    7:50   0.14   47.4    96    0.1   301     0.7   954.3    0.00 
  22    8:00   0.15   48.8    94    0.2   187     1.3   954.4    0.00 
  22    8:10   0.11   47.8    93    0.6   182     1.3   954.5    0.00 
  22    8:20   0.11   48.0    94    0.3   138     1.2   954.5    0.00 
  22    8:30   0.12   47.9    93    1.1   186     2.2   954.6    0.00 
  22    8:40   0.13   47.8    93    2.9   209     4.0   954.6    0.00 
  22    8:50   0.15   47.8    93    2.5   209     3.9   954.7    0.00 
  22    9:00   0.13   47.9    93    3.0   210     4.7   954.7    0.00 
  22    9:10   0.21   48.1    92    4.0   215     5.0   954.7    0.00 
  22    9:20   0.29   49.2    89    2.8   219     4.5   954.9    0.00 
  22    9:30   0.34   50.6    85    2.4   218     5.0   954.9    0.00 
  22    9:40   0.28   51.3    80    1.8   199     3.9   955.0    0.00 
  22    9:50   0.40   52.4    76    1.8   171     3.7   955.1    0.00 
  22   10:00   0.38   52.8    74    1.6   101     3.4   955.1    0.00 
  22   10:10   0.33   52.7    73    1.0   117     3.9   955.1    0.00 
  22   10:20   0.47   54.2    70    1.3    52     3.3   955.0    0.00 
  22   10:30   0.33   54.6    69    1.5   196     4.5   955.0    0.00 
  22   10:40   0.31   54.7    69    1.3    52     5.2   954.8    0.00 
  22   10:50   0.50   53.8    71    3.6    66     5.6   954.8    0.00 
  22   11:00   0.55   55.3    68    2.1    33     5.2   954.7    0.00 
  22   11:10   0.56   56.8    66    3.2   193     6.7   954.6    0.00 
  22   11:20   0.57   56.2    66    2.3   176     5.5   954.4    0.00 
  22   11:30   0.48   57.2    65    4.3    98     7.7   954.2    0.00 
  22   11:40   0.53   56.0    67    5.8    84     9.1   953.9    0.00 
  22   11:50   0.50   55.6    67    3.9    67     6.8   953.8    0.00 
  22   12:00   0.53   55.8    67    3.7    43     6.8   953.7    0.00 
  22   12:10   0.44   56.7    66    5.0    75     8.8   953.5    0.00 
  22   12:20   0.29   55.5    68    4.0    71     6.7   953.4    0.00 
  22   12:30   0.58   56.9    66    5.3   121     8.0   953.3    0.00 
  22   12:40   0.43   57.6    64    5.3   101     8.1   953.3    0.00 
  22   12:50   0.28   56.1    66    4.9    98     7.1   953.4    0.00 
  22   13:00   0.40   56.3    66    3.5    92     6.4   953.2    0.00 
  22   13:10   0.54   57.9    63    3.2    97     5.6   953.0    0.00 
  22   13:20   0.49   58.6    61    2.4     3     5.3   952.8    0.00 
  22   13:30   0.53   58.7    60    2.5   311     6.0   952.7    0.00 
  22   13:40   0.51   60.2    58    3.9   301     8.8   952.6    0.00 
  22   13:50   0.48   60.1    57    4.9   320     9.3   952.5    0.00 
  22   14:00   0.47   60.0    56    4.3   323     8.1   952.5    0.00 
  22   14:10   0.45   60.2    56    3.7   328     9.8   952.4    0.00 
  22   14:20   0.43   60.9    54    4.1     0     6.7   952.4    0.00 
  22   14:30   0.40   60.7    54    2.7    24     6.2   952.3    0.00 
  22   14:40   0.39   61.6    52    2.0    12     6.9   952.3    0.00 
  22   14:50   0.37   61.0    52    3.9    32     7.5   952.3    0.00 
  22   15:00   0.34   61.4    51    1.7     9     5.0   952.3    0.00 
  22   15:10   0.32   62.0    50    2.6    15     5.6   952.3    0.00 
  22   15:20   0.29   61.3    51    3.2    43     5.6   952.3    0.00 
  22   15:30   0.26   60.9    51    2.6   344     4.7   952.3    0.00 
  22   15:40   0.23   61.9    49    1.3   290     4.8   952.4    0.00 
  22   15:50   0.21   61.6    50    4.2   327     6.7   952.3    0.00 
  22   16:00   0.18   61.1    52    4.7   326     7.8   952.3    0.00 
  22   16:10   0.15   60.2    55    7.0   308    10.2   952.3    0.00 
  22   16:20   0.13   59.6    56    9.1   303    12.7   952.3    0.00 
  22   16:30   0.10   58.7    58   10.7   312    14.4   952.3    0.00 
  22   16:40   0.07   58.0    59   10.9   309    13.7   952.3    0.00 
  22   16:50   0.04   57.3    60   10.0   312    13.7   952.3    0.00 
  22   17:00   0.02   56.4    63    8.8   321    11.8   952.3    0.00 
  22   17:10   0.01   55.4    65    9.1   323    10.7   952.4    0.00 
  22   17:20   0.00   54.5    66    9.3   319    10.4   952.5    0.00 
  22   17:30   0.00   54.0    68    9.2   319    10.7   952.4    0.00 
  22   17:40   0.00   53.9    68    9.0   320    10.7   952.4    0.00 
  22   17:50   0.00   53.6    69    7.7   324     9.1   952.5    0.00 
  22   18:00   0.00   53.2    70    7.3   313     8.8   952.6    0.00 
  22   18:10   0.00   53.3    71    7.7   305     9.4   952.7    0.00 
  22   18:20   0.00   53.5    71    7.4   303     9.1   952.7    0.00 
  22   18:30   0.00   53.1    71    7.5   306     9.6   952.7    0.00 
  22   18:40   0.00   53.5    72    9.7   306    11.0   952.8    0.00 
  22   18:50   0.00   52.9    74    8.5   314    11.0   952.9    0.00 
  22   19:00   0.00   52.4    75    9.1   316    11.0   953.0    0.00 
  22   19:10   0.00   52.1    76    7.8   312    10.4   953.1    0.00 
  22   19:20   0.00   52.1    77    8.8   308    10.5   953.1    0.00 
  22   19:30   0.00   52.3    76    9.2   306    11.8   953.2    0.00 
  22   19:40   0.00   52.3    77    8.8   307    10.7   953.3    0.00 
  22   19:50   0.00   52.1    77    8.8   313    10.9   953.3    0.00 
  22   20:00   0.00   51.7    78    8.5   317    11.3   953.3    0.00 
  22   20:10   0.00   51.7    78    8.1   318     9.9   953.3    0.00 
  22   20:20   0.00   51.1    79    7.8   321     9.9   953.4    0.00 
  22   20:30   0.00   50.9    80    7.7   320     9.3   953.4    0.00 
  22   20:40   0.00   51.0    80    7.5   321     9.7   953.4    0.00 
  22   20:50   0.00   50.8    80    6.4   326     7.8   953.5    0.00 
  22   21:00   0.00   50.8    80    6.2   318     7.9   953.6    0.00 
  22   21:10   0.00   50.7    80    5.4   322     8.3   953.6    0.00 
  22   21:20   0.00   51.4    79    4.6   348     6.2   953.6    0.00 
  22   21:30   0.00   51.0    79    3.6   325     5.3   953.7    0.00 
  22   21:40   0.00   50.7    80    1.6   286     3.9   953.8    0.00 
  22   21:50   0.00   51.1    79    3.3   304     4.5   953.9    0.00 
  22   22:00   0.00   50.8    79    3.4   282     4.5   954.0    0.00 
  22   22:10   0.00   50.1    80    3.3   256     4.2   954.0    0.00 
  22   22:20   0.00   50.1    80    2.7   259     3.4   953.9    0.00 
  22   22:30   0.00   51.1    77    2.4   297     3.7   953.9    0.00 
  22   22:40   0.00   51.5    76    5.1   309     5.8   953.9    0.00 
  22   22:50   0.00   51.6    76    3.7   304     5.0   953.9    0.00 
  22   23:00   0.00   52.5    74    3.7   358     4.9   953.9    0.00 

Return to Motte Rimrock Reserve graphs page.


Western Regional Climate Center,wrcc@dri.edu